Time;durP1;ratioP1;P1;durP2;ratioP2;P2;SDS_P1;SDS_P2;PMS_P1;PMS_P2;Temp;Humidity;BMP_temperature;BMP_pressure;BME280_temperature;BME280_humidity;BME280_pressure;Samples;Min_cycle;Max_cycle;Signal;HPM_P1;HPM_P2
2022/10/22 00:02:06;;;;;;;;;;;25.70;99.90;;;;;;4209771;28;19932;-71
2022/10/22 00:04:14;;;;;;;;;;;25.70;99.90;;;;;;4180735;28;20364;-69
2022/10/22 00:06:26;;;;;;;;;;;25.80;99.90;;;;;;4194346;28;19928;-70
2022/10/22 00:08:41;;;;;;;;;;;25.80;99.90;;;;;;4195652;28;19925;-68
2022/10/22 00:10:54;;;;;;;;;;;25.80;99.90;;;;;;4184066;28;19937;-70
2022/10/22 00:13:02;;;;;;;;;;;25.70;99.90;;;;;;4194695;28;19978;-68
2022/10/22 00:15:14;;;;;;;;;;;25.80;99.90;;;;;;4195009;28;19924;-70
2022/10/22 00:17:21;;;;;;;;;;;25.80;99.90;;;;;;4195524;28;19932;-69
2022/10/22 00:19:29;;;;;;;;;;;25.80;99.90;;;;;;4210894;28;19993;-70
2022/10/22 00:21:36;;;;;;;;;;;25.80;99.90;;;;;;4210605;28;19931;-71
2022/10/22 00:23:42;;;;;;;;;;;25.80;99.90;;;;;;4179243;28;19925;-69
2022/10/22 00:25:52;;;;;;;;;;;25.60;99.90;;;;;;4195785;28;19935;-70
2022/10/22 00:28:01;;;;;;;;;;;25.60;99.90;;;;;;4193577;28;19963;-70
2022/10/22 00:30:11;;;;;;;;;;;25.60;99.90;;;;;;4195954;28;19929;-72
2022/10/22 00:32:17;;;;;;;;;;;25.70;99.90;;;;;;4195435;28;20046;-70
2022/10/22 00:34:26;;;;;;;;;;;25.70;99.90;;;;;;4195444;28;19929;-70
2022/10/22 00:36:50;;;;;;;;;;;25.70;99.90;;;;;;4208471;28;19959;-71
2022/10/22 00:38:58;;;;;;;;;;;25.70;99.90;;;;;;4196075;28;19928;-70
2022/10/22 00:41:05;;;;;;;;;;;25.60;99.90;;;;;;4192281;28;19952;-70
2022/10/22 00:43:19;;;;;;;;;;;25.60;99.90;;;;;;4177460;28;19959;-70
2022/10/22 00:45:24;;;;;;;;;;;25.70;99.90;;;;;;4194714;28;20045;-70
2022/10/22 00:47:35;;;;;;;;;;;25.60;99.90;;;;;;4193360;28;19932;-71
2022/10/22 00:49:42;;;;;;;;;;;25.60;99.90;;;;;;4194728;28;19974;-70
2022/10/22 00:51:49;;;;;;;;;;;25.60;99.90;;;;;;4181880;28;19933;-72
2022/10/22 00:53:54;;;;;;;;;;;25.70;99.90;;;;;;4193225;28;19928;-72
2022/10/22 00:56:02;;;;;;;;;;;25.60;99.90;;;;;;4160802;28;20366;-71
2022/10/22 00:58:08;;;;;;;;;;;25.80;99.90;;;;;;4195770;28;19978;-70
2022/10/22 01:00:16;;;;;;;;;;;25.80;99.90;;;;;;4195115;28;19925;-70
2022/10/22 01:02:23;;;;;;;;;;;25.80;99.90;;;;;;4195773;28;19978;-71
2022/10/22 01:04:31;;;;;;;;;;;25.90;99.90;;;;;;4171532;28;20008;-72
2022/10/22 01:06:36;;;;;;;;;;;25.90;99.90;;;;;;4190703;28;19929;-72
2022/10/22 01:08:49;;;;;;;;;;;26.00;99.90;;;;;;4206431;28;19974;-70
2022/10/22 01:11:06;;;;;;;;;;;26.00;99.90;;;;;;4178139;28;19935;-71
2022/10/22 01:13:16;;;;;;;;;;;26.10;99.90;;;;;;4177504;28;20222;-69
2022/10/22 01:15:35;;;;;;;;;;;26.10;99.90;;;;;;4178254;28;19971;-72
2022/10/22 01:17:47;;;;;;;;;;;26.20;99.90;;;;;;4195237;28;19931;-71
2022/10/22 01:20:06;;;;;;;;;;;26.20;99.90;;;;;;4195679;28;19929;-70
2022/10/22 01:22:13;;;;;;;;;;;26.20;99.90;;;;;;4194946;28;19932;-71
2022/10/22 01:24:28;;;;;;;;;;;26.40;99.90;;;;;;4210848;28;19924;-70
2022/10/22 01:26:45;;;;;;;;;;;26.50;99.90;;;;;;4192905;28;19929;-70
2022/10/22 01:28:55;;;;;;;;;;;26.40;99.90;;;;;;4192704;28;20704;-70
2022/10/22 01:31:01;;;;;;;;;;;26.50;99.90;;;;;;4210091;28;19935;-69
2022/10/22 01:33:08;;;;;;;;;;;26.50;99.90;;;;;;4195370;28;19934;-71
2022/10/22 01:35:15;;;;;;;;;;;26.60;99.90;;;;;;4210150;28;19932;-70
2022/10/22 01:37:21;;;;;;;;;;;26.60;99.90;;;;;;4197962;28;19931;-71
2022/10/22 01:39:25;;;;;;;;;;;26.70;99.90;;;;;;4193963;28;19964;-71
2022/10/22 01:41:29;;;;;;;;;;;26.80;99.90;;;;;;4210304;28;20364;-71
2022/10/22 01:43:39;;;;;;;;;;;26.80;99.90;;;;;;4210057;28;19935;-71
2022/10/22 01:45:53;;;;;;;;;;;26.80;99.90;;;;;;4194498;28;20375;-69
2022/10/22 01:48:19;;;;;;;;;;;26.90;99.90;;;;;;4177528;28;20684;-71
2022/10/22 01:50:28;;;;;;;;;;;27.00;99.90;;;;;;4198537;28;20211;-70
2022/10/22 01:52:42;;;;;;;;;;;27.00;99.90;;;;;;4208672;28;20412;-70
2022/10/22 01:54:52;;;;;;;;;;;27.00;99.90;;;;;;4179753;28;19928;-70
2022/10/22 01:57:13;;;;;;;;;;;27.00;99.90;;;;;;4204431;28;19998;-70
2022/10/22 01:59:35;;;;;;;;;;;27.00;99.90;;;;;;4204153;28;19924;-68
2022/10/22 02:01:53;;;;;;;;;;;27.00;99.90;;;;;;4189475;28;20452;-71
2022/10/22 02:04:04;;;;;;;;;;;27.10;99.90;;;;;;4194841;28;19924;-70
2022/10/22 02:06:14;;;;;;;;;;;27.20;99.90;;;;;;4177541;28;20393;-70
2022/10/22 02:08:28;;;;;;;;;;;27.30;99.90;;;;;;4189649;28;20291;-70
2022/10/22 02:10:38;;;;;;;;;;;27.30;99.90;;;;;;4193536;28;19928;-70
2022/10/22 02:13:02;;;;;;;;;;;27.40;99.90;;;;;;4224675;28;19967;-71
2022/10/22 02:15:13;;;;;;;;;;;27.50;98.30;;;;;;4207248;28;19928;-70
2022/10/22 02:17:30;;;;;;;;;;;27.60;98.10;;;;;;4176163;28;19963;-69
2022/10/22 02:19:41;;;;;;;;;;;27.60;98.30;;;;;;4161581;28;19991;-69
2022/10/22 02:22:04;;;;;;;;;;;27.50;98.30;;;;;;4159250;28;19925;-70
2022/10/22 02:24:17;;;;;;;;;;;27.50;97.90;;;;;;4159129;28;19929;-71
2022/10/22 02:26:24;;;;;;;;;;;27.60;98.00;;;;;;4175354;28;20027;-70
2022/10/22 02:28:34;;;;;;;;;;;27.60;97.80;;;;;;4144136;28;20463;-71
2022/10/22 02:30:45;;;;;;;;;;;27.70;98.20;;;;;;4162049;28;19929;-69
2022/10/22 02:33:02;;;;;;;;;;;27.70;97.70;;;;;;4162402;28;19929;-70
2022/10/22 02:35:15;;;;;;;;;;;27.60;97.80;;;;;;4145970;28;19929;-70
2022/10/22 02:37:24;;;;;;;;;;;27.70;97.50;;;;;;4150649;28;19979;-70
2022/10/22 02:39:30;;;;;;;;;;;27.70;97.40;;;;;;4164395;28;20433;-70
2022/10/22 02:41:36;;;;;;;;;;;27.70;97.50;;;;;;4177717;28;19925;-70
2022/10/22 02:43:48;;;;;;;;;;;27.70;97.50;;;;;;4185203;28;19928;-70
2022/10/22 02:45:52;;;;;;;;;;;27.70;97.30;;;;;;4178463;28;20280;-70
2022/10/22 02:47:58;;;;;;;;;;;27.80;97.30;;;;;;4169511;28;19936;-70
2022/10/22 02:50:04;;;;;;;;;;;27.90;97.50;;;;;;4197821;28;19924;-69
2022/10/22 02:52:14;;;;;;;;;;;27.90;97.70;;;;;;4211134;28;19928;-70
2022/10/22 02:54:18;;;;;;;;;;;27.90;97.50;;;;;;4194141;28;19935;-70
2022/10/22 02:56:26;;;;;;;;;;;27.90;97.70;;;;;;4208789;28;19924;-70
2022/10/22 02:58:32;;;;;;;;;;;27.90;97.60;;;;;;4192684;28;19928;-70
2022/10/22 03:00:37;;;;;;;;;;;28.00;97.50;;;;;;4184012;28;19928;-71
2022/10/22 03:02:46;;;;;;;;;;;28.00;97.60;;;;;;4196977;28;19978;-71
2022/10/22 03:04:51;;;;;;;;;;;28.00;97.20;;;;;;4197269;28;19928;-71
2022/10/22 03:06:55;;;;;;;;;;;28.00;97.20;;;;;;4193408;28;20341;-71
2022/10/22 03:09:02;;;;;;;;;;;28.00;97.20;;;;;;4209643;28;20372;-68
2022/10/22 03:11:06;;;;;;;;;;;28.00;97.20;;;;;;4192753;28;19960;-69
2022/10/22 03:13:12;;;;;;;;;;;28.00;97.30;;;;;;4196506;28;19933;-70
2022/10/22 03:15:19;;;;;;;;;;;28.10;97.30;;;;;;4194535;28;19990;-70
2022/10/22 03:38:46;;;;;;;;;;;28.30;95.80;;;;;;4198847;28;20019;-71
2022/10/22 03:40:54;;;;;;;;;;;28.30;95.90;;;;;;4196329;28;19925;-70
2022/10/22 03:42:59;;;;;;;;;;;28.40;96.00;;;;;;4212621;28;19955;-70
2022/10/22 03:45:08;;;;;;;;;;;28.50;96.30;;;;;;4211945;28;20386;-71
2022/10/22 03:47:16;;;;;;;;;;;28.50;95.70;;;;;;4196604;28;20378;-71
2022/10/22 03:49:23;;;;;;;;;;;28.50;95.70;;;;;;4191511;28;19932;-70
2022/10/22 03:51:29;;;;;;;;;;;28.60;96.10;;;;;;4213214;28;19967;-70
2022/10/22 03:53:39;;;;;;;;;;;28.60;95.90;;;;;;4202516;28;19925;-70
2022/10/22 03:55:44;;;;;;;;;;;28.60;95.80;;;;;;4195712;28;19928;-70
2022/10/22 03:57:50;;;;;;;;;;;28.50;95.70;;;;;;4196645;28;19932;-70
2022/10/22 03:59:55;;;;;;;;;;;28.50;95.90;;;;;;4196537;28;19925;-70
2022/10/22 04:02:01;;;;;;;;;;;28.60;96.00;;;;;;4178817;28;20383;-69
2022/10/22 04:04:10;;;;;;;;;;;28.50;96.60;;;;;;4164223;28;19956;-69
2022/10/22 04:06:17;;;;;;;;;;;28.50;96.30;;;;;;4196116;28;20432;-70
2022/10/22 04:08:22;;;;;;;;;;;28.50;96.50;;;;;;4207131;28;19986;-70
2022/10/22 04:10:26;;;;;;;;;;;28.50;95.50;;;;;;4212078;28;19923;-69
2022/10/22 04:12:33;;;;;;;;;;;28.40;95.30;;;;;;4202032;28;19924;-69
2022/10/22 04:14:37;;;;;;;;;;;28.40;95.10;;;;;;4205742;28;20388;-69
2022/10/22 04:16:42;;;;;;;;;;;28.30;94.90;;;;;;4194139;28;19970;-69
2022/10/22 04:18:47;;;;;;;;;;;28.30;94.80;;;;;;4210093;28;19962;-70
2022/10/22 04:20:54;;;;;;;;;;;28.30;94.90;;;;;;4205831;28;19981;-69
2022/10/22 04:22:58;;;;;;;;;;;28.30;95.10;;;;;;4195165;28;19928;-71
2022/10/22 04:25:05;;;;;;;;;;;28.40;95.00;;;;;;4191210;28;20393;-71
2022/10/22 04:27:09;;;;;;;;;;;28.40;94.90;;;;;;4164628;28;19999;-69
2022/10/22 04:29:16;;;;;;;;;;;28.40;94.90;;;;;;4166497;28;19932;-71
2022/10/22 04:31:21;;;;;;;;;;;28.40;94.70;;;;;;4182562;28;20063;-70
2022/10/22 04:33:26;;;;;;;;;;;28.40;94.80;;;;;;4173011;28;19978;-70
2022/10/22 04:35:32;;;;;;;;;;;28.40;94.70;;;;;;4195010;28;19932;-71
2022/10/22 04:37:36;;;;;;;;;;;28.30;94.60;;;;;;4190861;28;19929;-70
2022/10/22 04:39:41;;;;;;;;;;;28.40;94.50;;;;;;4194822;28;19924;-71
2022/10/22 04:41:47;;;;;;;;;;;28.30;94.60;;;;;;4144304;28;19961;-70
2022/10/22 04:43:53;;;;;;;;;;;28.30;94.90;;;;;;4195863;28;19931;-70
2022/10/22 04:46:01;;;;;;;;;;;28.30;95.00;;;;;;4194956;28;19974;-70
2022/10/22 04:48:11;;;;;;;;;;;28.30;95.20;;;;;;4195313;28;19928;-70
2022/10/22 04:50:19;;;;;;;;;;;28.40;95.40;;;;;;4193120;28;19925;-70
2022/10/22 04:52:23;;;;;;;;;;;28.40;95.50;;;;;;4194597;28;20318;-71
2022/10/22 04:54:28;;;;;;;;;;;28.30;95.20;;;;;;4178352;28;19979;-71
2022/10/22 04:56:37;;;;;;;;;;;28.40;95.30;;;;;;4178297;28;19925;-70
2022/10/22 04:58:41;;;;;;;;;;;28.40;95.40;;;;;;4195653;28;19928;-70
2022/10/22 05:00:48;;;;;;;;;;;28.30;95.50;;;;;;4175890;28;20391;-70
2022/10/22 05:03:14;;;;;;;;;;;28.30;95.30;;;;;;4208445;28;19928;-71
2022/10/22 05:05:22;;;;;;;;;;;28.40;95.50;;;;;;4194905;28;19932;-70
2022/10/22 05:07:30;;;;;;;;;;;28.40;95.60;;;;;;4188179;28;20605;-70
2022/10/22 05:09:38;;;;;;;;;;;28.50;95.40;;;;;;4210291;28;19924;-70
2022/10/22 05:11:47;;;;;;;;;;;28.50;95.20;;;;;;4205068;28;19928;-70
2022/10/22 05:13:51;;;;;;;;;;;28.50;95.20;;;;;;4190046;28;19936;-70
2022/10/22 05:16:00;;;;;;;;;;;28.60;95.20;;;;;;4188251;28;19932;-71
2022/10/22 05:18:04;;;;;;;;;;;28.60;95.10;;;;;;4193777;28;19928;-70
2022/10/22 05:20:12;;;;;;;;;;;28.70;95.00;;;;;;4209540;28;19924;-70
2022/10/22 05:22:18;;;;;;;;;;;28.70;94.90;;;;;;4195285;28;20007;-70
2022/10/22 05:24:22;;;;;;;;;;;28.70;94.90;;;;;;4194797;28;19928;-70
2022/10/22 05:26:27;;;;;;;;;;;28.70;95.00;;;;;;4177097;28;19924;-70
2022/10/22 05:28:31;;;;;;;;;;;28.70;95.10;;;;;;4195116;28;19939;-70
2022/10/22 05:30:35;;;;;;;;;;;28.80;94.80;;;;;;4195124;28;19935;-70
2022/10/22 05:32:41;;;;;;;;;;;28.80;94.70;;;;;;4159627;28;20363;-70
2022/10/22 05:34:45;;;;;;;;;;;28.70;94.60;;;;;;4194587;28;19974;-70
2022/10/22 05:36:51;;;;;;;;;;;28.70;94.70;;;;;;4209335;28;20318;-71
2022/10/22 05:38:56;;;;;;;;;;;28.80;94.80;;;;;;4210259;28;20031;-70
2022/10/22 05:41:01;;;;;;;;;;;28.80;94.50;;;;;;4211412;28;19964;-70
2022/10/22 05:43:07;;;;;;;;;;;28.70;94.60;;;;;;4211471;28;19928;-70
2022/10/22 05:45:14;;;;;;;;;;;28.70;94.60;;;;;;4155381;28;20439;-72
2022/10/22 05:47:18;;;;;;;;;;;28.70;94.80;;;;;;4194204;28;19943;-70
2022/10/22 05:49:24;;;;;;;;;;;28.70;94.70;;;;;;4194280;28;19966;-71
2022/10/22 05:51:34;;;;;;;;;;;28.70;94.80;;;;;;4192456;28;19950;-72
2022/10/22 05:53:43;;;;;;;;;;;28.60;94.90;;;;;;4193565;28;20057;-72
2022/10/22 05:55:49;;;;;;;;;;;28.50;95.20;;;;;;4194033;28;20344;-71
2022/10/22 05:57:55;;;;;;;;;;;28.60;95.10;;;;;;4194734;28;19935;-71
2022/10/22 06:00:18;;;;;;;;;;;28.50;95.50;;;;;;4206119;28;19928;-71
2022/10/22 06:02:33;;;;;;;;;;;28.50;95.10;;;;;;4194547;28;20018;-71
2022/10/22 06:04:37;;;;;;;;;;;28.60;94.70;;;;;;4196568;28;19970;-71
2022/10/22 06:06:46;;;;;;;;;;;28.50;94.60;;;;;;4196979;28;19935;-71
2022/10/22 06:08:51;;;;;;;;;;;28.50;94.70;;;;;;4213302;28;19940;-71
2022/10/22 06:10:57;;;;;;;;;;;28.60;94.90;;;;;;4197381;28;19956;-70
2022/10/22 06:13:06;;;;;;;;;;;28.60;94.70;;;;;;4187283;28;19929;-71
2022/10/22 06:15:11;;;;;;;;;;;28.60;94.60;;;;;;4194692;28;19936;-70
2022/10/22 06:17:15;;;;;;;;;;;28.50;94.70;;;;;;4197321;28;19962;-70
2022/10/22 06:19:24;;;;;;;;;;;28.50;94.70;;;;;;4197132;28;20781;-71
2022/10/22 06:21:29;;;;;;;;;;;28.60;94.60;;;;;;4211322;28;20626;-70
2022/10/22 06:23:35;;;;;;;;;;;28.70;95.00;;;;;;4194930;28;20024;-70
2022/10/22 06:25:42;;;;;;;;;;;28.70;95.20;;;;;;4196933;28;19928;-71
2022/10/22 06:27:50;;;;;;;;;;;28.70;94.80;;;;;;4196937;28;19925;-71
2022/10/22 06:30:00;;;;;;;;;;;28.80;94.40;;;;;;4210344;28;19981;-69
2022/10/22 06:32:18;;;;;;;;;;;28.80;94.40;;;;;;4197341;28;19993;-71
2022/10/22 06:34:24;;;;;;;;;;;28.90;94.40;;;;;;4196628;28;19924;-71
2022/10/22 06:36:34;;;;;;;;;;;28.80;94.40;;;;;;4194070;28;19928;-72
2022/10/22 06:39:00;;;;;;;;;;;28.90;94.70;;;;;;4183625;28;20015;-71
2022/10/22 06:41:24;;;;;;;;;;;29.00;94.50;;;;;;4194934;28;19960;-71
2022/10/22 06:43:52;;;;;;;;;;;29.00;94.50;;;;;;4171390;28;20551;-70
2022/10/22 06:46:06;;;;;;;;;;;29.00;94.20;;;;;;4196874;28;19986;-70
2022/10/22 06:48:14;;;;;;;;;;;29.10;94.00;;;;;;4196685;28;19963;-70
2022/10/22 06:50:23;;;;;;;;;;;29.10;93.90;;;;;;4211077;28;19940;-71
2022/10/22 06:52:30;;;;;;;;;;;29.20;93.70;;;;;;4195086;28;20359;-71
2022/10/22 06:54:34;;;;;;;;;;;29.10;93.60;;;;;;4194442;28;19929;-72
2022/10/22 06:56:42;;;;;;;;;;;29.20;93.70;;;;;;4196524;28;19960;-68
2022/10/22 06:58:48;;;;;;;;;;;29.10;93.60;;;;;;4186879;28;19952;-70
2022/10/22 07:01:04;;;;;;;;;;;29.20;93.50;;;;;;4210489;28;20448;-69
2022/10/22 07:03:18;;;;;;;;;;;29.30;93.50;;;;;;4210463;28;20179;-70
2022/10/22 07:05:26;;;;;;;;;;;29.20;93.40;;;;;;4196428;28;20443;-69
2022/10/22 07:07:33;;;;;;;;;;;29.20;93.30;;;;;;4196883;28;20373;-70
2022/10/22 07:09:48;;;;;;;;;;;29.20;93.10;;;;;;4176225;28;19955;-70
2022/10/22 07:11:55;;;;;;;;;;;29.20;93.60;;;;;;4193844;28;19935;-69
2022/10/22 07:14:01;;;;;;;;;;;29.30;94.00;;;;;;4195549;28;20415;-70
2022/10/22 07:16:08;;;;;;;;;;;29.20;93.10;;;;;;4199384;28;19925;-69
2022/10/22 07:18:17;;;;;;;;;;;29.10;93.20;;;;;;4179562;28;20575;-69
2022/10/22 07:20:22;;;;;;;;;;;29.10;92.80;;;;;;4208974;28;19943;-69
2022/10/22 07:22:33;;;;;;;;;;;29.10;92.80;;;;;;4195527;28;19968;-69
2022/10/22 07:24:57;;;;;;;;;;;29.00;92.80;;;;;;4181504;28;19964;-69
2022/10/22 07:27:09;;;;;;;;;;;29.10;92.80;;;;;;4195341;28;19929;-70
2022/10/22 07:29:33;;;;;;;;;;;29.10;92.40;;;;;;4180283;28;20441;-70
2022/10/22 07:31:40;;;;;;;;;;;29.10;92.00;;;;;;4192291;28;19933;-70
2022/10/22 07:33:57;;;;;;;;;;;29.10;91.90;;;;;;4180272;28;20039;-69
2022/10/22 07:36:11;;;;;;;;;;;29.10;91.60;;;;;;4169040;28;19991;-69
2022/10/22 07:38:22;;;;;;;;;;;29.10;91.80;;;;;;4170261;28;19936;-69
2022/10/22 07:40:32;;;;;;;;;;;29.10;91.80;;;;;;4170935;28;20323;-69
2022/10/22 07:42:41;;;;;;;;;;;29.10;91.70;;;;;;4166260;28;19979;-70
2022/10/22 07:44:49;;;;;;;;;;;29.10;91.80;;;;;;4170260;28;20388;-70
2022/10/22 07:46:57;;;;;;;;;;;29.20;92.10;;;;;;4149037;28;19929;-70
2022/10/22 07:49:07;;;;;;;;;;;29.10;92.10;;;;;;4170959;28;19925;-69
2022/10/22 07:51:13;;;;;;;;;;;29.10;92.20;;;;;;4164509;28;19925;-70
2022/10/22 07:53:20;;;;;;;;;;;29.10;91.80;;;;;;4159747;28;20036;-70
2022/10/22 07:55:24;;;;;;;;;;;29.00;91.80;;;;;;4178764;28;20026;-69
2022/10/22 07:57:32;;;;;;;;;;;29.00;91.90;;;;;;4167020;28;19975;-71
2022/10/22 07:59:38;;;;;;;;;;;29.00;91.80;;;;;;4163332;28;19929;-71
2022/10/22 08:02:01;;;;;;;;;;;28.90;91.50;;;;;;4161861;28;19933;-70
2022/10/22 08:04:17;;;;;;;;;;;28.90;91.80;;;;;;4161963;28;19925;-70
2022/10/22 08:06:41;;;;;;;;;;;28.90;91.80;;;;;;4147938;28;19944;-70
2022/10/22 08:09:09;;;;;;;;;;;28.90;91.80;;;;;;4175094;28;20017;-70
2022/10/22 08:11:17;;;;;;;;;;;28.80;91.80;;;;;;4165689;28;19968;-70
2022/10/22 08:13:26;;;;;;;;;;;28.90;92.00;;;;;;4158652;28;19936;-69
2022/10/22 08:15:32;;;;;;;;;;;28.90;92.00;;;;;;4168675;28;19936;-69
2022/10/22 08:17:47;;;;;;;;;;;28.90;92.10;;;;;;4168842;28;20026;-70
2022/10/22 08:19:55;;;;;;;;;;;29.00;92.20;;;;;;4168701;28;19956;-70
2022/10/22 08:22:02;;;;;;;;;;;29.10;92.20;;;;;;4169867;28;20307;-71
2022/10/22 08:24:10;;;;;;;;;;;29.10;92.10;;;;;;4148045;28;19932;-72
2022/10/22 08:26:15;;;;;;;;;;;29.10;92.10;;;;;;4158801;28;19965;-71
2022/10/22 08:28:21;;;;;;;;;;;29.10;92.10;;;;;;4159603;28;20380;-70
2022/10/22 08:30:30;;;;;;;;;;;29.10;92.30;;;;;;4171341;28;20368;-71
2022/10/22 08:32:36;;;;;;;;;;;29.20;92.40;;;;;;4167900;28;19999;-68
2022/10/22 08:34:43;;;;;;;;;;;29.10;92.10;;;;;;4116610;28;20016;-69
2022/10/22 08:36:52;;;;;;;;;;;29.00;91.80;;;;;;4163658;28;20316;-69
2022/10/22 08:38:59;;;;;;;;;;;29.00;92.10;;;;;;4168158;28;20857;-71
2022/10/22 08:41:11;;;;;;;;;;;29.00;92.00;;;;;;4125174;28;19925;-70
2022/10/22 08:43:31;;;;;;;;;;;29.00;91.80;;;;;;4169244;28;20019;-71
2022/10/22 08:45:38;;;;;;;;;;;29.00;91.80;;;;;;4164362;28;19967;-70
2022/10/22 08:47:52;;;;;;;;;;;29.10;91.60;;;;;;4169413;28;19960;-69
2022/10/22 08:49:59;;;;;;;;;;;29.00;91.60;;;;;;4168476;28;19971;-70
2022/10/22 08:52:18;;;;;;;;;;;29.00;91.70;;;;;;4168595;28;19924;-70
2022/10/22 08:54:35;;;;;;;;;;;28.90;91.60;;;;;;4169007;28;19972;-68
2022/10/22 08:56:46;;;;;;;;;;;29.00;91.40;;;;;;4145863;28;19926;-69
2022/10/22 08:59:18;;;;;;;;;;;28.90;91.40;;;;;;4162681;28;19932;-69
2022/10/22 09:01:31;;;;;;;;;;;28.80;91.30;;;;;;4159170;28;20033;-70
2022/10/22 09:03:55;;;;;;;;;;;28.80;91.20;;;;;;4178422;28;19928;-69
2022/10/22 09:06:31;;;;;;;;;;;28.80;91.10;;;;;;4169108;28;19939;-70
2022/10/22 09:08:43;;;;;;;;;;;28.80;91.30;;;;;;4170678;28;19933;-69
2022/10/22 09:11:12;;;;;;;;;;;28.80;91.30;;;;;;4153375;28;20003;-68
2022/10/22 09:13:19;;;;;;;;;;;28.80;91.30;;;;;;4151350;28;19966;-69
2022/10/22 09:15:27;;;;;;;;;;;28.80;91.40;;;;;;4167754;28;20281;-69
2022/10/22 09:17:38;;;;;;;;;;;28.60;91.50;;;;;;4167614;28;19964;-69
2022/10/22 09:19:54;;;;;;;;;;;28.70;91.40;;;;;;4178608;28;20747;-70
2022/10/22 09:22:19;;;;;;;;;;;28.70;91.80;;;;;;4149709;28;19965;-68
2022/10/22 09:24:36;;;;;;;;;;;28.60;91.40;;;;;;4157474;28;20672;-69
2022/10/22 09:26:40;;;;;;;;;;;28.70;91.50;;;;;;4154445;28;20281;-70
2022/10/22 09:28:48;;;;;;;;;;;28.70;91.60;;;;;;4160411;28;19925;-70
2022/10/22 09:30:54;;;;;;;;;;;28.70;91.70;;;;;;4152324;28;19975;-69
2022/10/22 09:33:01;;;;;;;;;;;28.70;91.80;;;;;;4140485;28;19925;-69
2022/10/22 09:35:08;;;;;;;;;;;28.70;91.80;;;;;;4171318;28;19936;-69
2022/10/22 09:37:14;;;;;;;;;;;28.70;91.80;;;;;;4177631;28;19937;-69
2022/10/22 09:39:22;;;;;;;;;;;28.70;91.90;;;;;;4163052;28;20329;-70
2022/10/22 09:41:28;;;;;;;;;;;28.70;91.90;;;;;;4193462;28;19925;-70
2022/10/22 09:43:35;;;;;;;;;;;28.60;91.90;;;;;;4187660;28;19967;-69
2022/10/22 09:45:41;;;;;;;;;;;28.50;92.00;;;;;;4213388;28;19993;-69
2022/10/22 09:48:03;;;;;;;;;;;28.60;92.00;;;;;;4200453;28;19935;-68
2022/10/22 09:50:27;;;;;;;;;;;28.60;92.00;;;;;;4194749;28;19928;-69
2022/10/22 09:52:31;;;;;;;;;;;28.60;92.00;;;;;;4195749;28;20264;-69
2022/10/22 09:54:38;;;;;;;;;;;28.60;92.20;;;;;;4144276;28;19953;-71
2022/10/22 09:56:45;;;;;;;;;;;28.60;92.30;;;;;;4197631;28;19924;-70
2022/10/22 09:58:50;;;;;;;;;;;28.60;92.30;;;;;;4194040;28;20409;-70
2022/10/22 10:00:58;;;;;;;;;;;28.60;92.30;;;;;;4196335;28;20015;-70
2022/10/22 10:03:02;;;;;;;;;;;28.50;92.30;;;;;;4194510;28;20016;-70
2022/10/22 10:05:19;;;;;;;;;;;28.60;92.60;;;;;;4187416;28;20015;-70
2022/10/22 10:07:29;;;;;;;;;;;28.60;92.60;;;;;;4196183;28;19948;-70
2022/10/22 10:09:35;;;;;;;;;;;28.60;92.70;;;;;;4193884;28;20023;-70
2022/10/22 10:11:43;;;;;;;;;;;28.60;92.70;;;;;;4196998;28;19960;-70
2022/10/22 10:13:58;;;;;;;;;;;28.50;92.70;;;;;;4195376;28;19978;-69
2022/10/22 10:16:24;;;;;;;;;;;28.50;92.70;;;;;;4191901;28;19928;-70
2022/10/22 10:18:37;;;;;;;;;;;28.50;92.80;;;;;;4193687;28;19934;-70
2022/10/22 10:21:12;;;;;;;;;;;28.60;92.90;;;;;;4192795;28;20822;-69
2022/10/22 10:23:53;;;;;;;;;;;28.50;93.00;;;;;;4196650;28;19995;-70
2022/10/22 10:26:17;;;;;;;;;;;28.50;93.00;;;;;;4194823;28;19928;-71
2022/10/22 10:28:29;;;;;;;;;;;28.50;93.20;;;;;;4169645;28;19924;-71
2022/10/22 10:30:38;;;;;;;;;;;28.50;93.20;;;;;;4195622;28;19928;-72
2022/10/22 10:32:48;;;;;;;;;;;28.50;93.20;;;;;;4193561;28;19928;-70
2022/10/22 10:34:54;;;;;;;;;;;28.50;93.20;;;;;;4195238;28;19924;-70
2022/10/22 10:37:19;;;;;;;;;;;28.50;93.30;;;;;;4195777;28;19930;-71
2022/10/22 10:39:34;;;;;;;;;;;28.40;93.60;;;;;;4195688;28;19935;-71
2022/10/22 10:41:48;;;;;;;;;;;28.40;93.70;;;;;;4194255;28;19928;-72
2022/10/22 10:44:11;;;;;;;;;;;28.40;93.70;;;;;;4210841;28;20749;-74
2022/10/22 10:46:22;;;;;;;;;;;28.30;93.70;;;;;;4221219;28;20638;-73
2022/10/22 10:48:40;;;;;;;;;;;28.30;93.80;;;;;;4211051;28;20032;-73
2022/10/22 10:50:56;;;;;;;;;;;28.30;93.90;;;;;;4193515;28;20427;-72
2022/10/22 10:53:17;;;;;;;;;;;28.30;94.10;;;;;;4194423;28;20014;-74
2022/10/22 10:55:54;;;;;;;;;;;28.30;94.10;;;;;;4208179;28;20286;-73
2022/10/22 10:58:16;;;;;;;;;;;28.30;94.30;;;;;;4195963;28;19928;-75
2022/10/22 11:00:22;;;;;;;;;;;28.30;94.40;;;;;;4194392;28;19934;-73
2022/10/22 11:02:52;;;;;;;;;;;28.30;94.50;;;;;;4208186;28;20345;-73
2022/10/22 11:05:17;;;;;;;;;;;28.30;94.70;;;;;;4195142;28;19988;-74
2022/10/22 11:07:31;;;;;;;;;;;28.20;94.80;;;;;;4208417;28;19928;-72
2022/10/22 11:09:50;;;;;;;;;;;28.20;94.80;;;;;;4180635;28;19928;-72
2022/10/22 11:12:24;;;;;;;;;;;28.20;94.70;;;;;;4195319;28;19971;-71
2022/10/22 11:14:35;;;;;;;;;;;28.20;94.80;;;;;;4174390;28;20689;-73
2022/10/22 11:16:46;;;;;;;;;;;28.20;94.90;;;;;;4209000;28;19932;-74
2022/10/22 11:18:57;;;;;;;;;;;28.20;94.90;;;;;;4209151;28;19924;-74
2022/10/22 11:21:03;;;;;;;;;;;28.20;95.00;;;;;;4209068;28;20012;-73
2022/10/22 11:23:10;;;;;;;;;;;28.20;95.00;;;;;;4195036;28;20572;-72
2022/10/22 11:25:42;;;;;;;;;;;28.20;95.10;;;;;;4197450;28;19940;-73
2022/10/22 11:27:52;;;;;;;;;;;28.10;95.20;;;;;;4193889;28;19989;-73
2022/10/22 11:30:10;;;;;;;;;;;28.10;95.60;;;;;;4171687;28;19951;-73
2022/10/22 11:32:17;;;;;;;;;;;28.10;95.30;;;;;;4159547;28;19933;-74
2022/10/22 11:34:33;;;;;;;;;;;28.10;95.50;;;;;;4209116;28;20573;-73
2022/10/22 11:36:39;;;;;;;;;;;28.10;95.50;;;;;;4177510;28;19929;-73
2022/10/22 11:38:45;;;;;;;;;;;28.00;95.60;;;;;;4172519;28;19959;-73
2022/10/22 11:40:53;;;;;;;;;;;28.00;95.60;;;;;;4192094;28;19936;-74
2022/10/22 11:42:58;;;;;;;;;;;28.10;95.60;;;;;;4207867;28;20655;-74
2022/10/22 11:45:05;;;;;;;;;;;28.00;95.30;;;;;;4209152;28;19924;-73
2022/10/22 11:47:17;;;;;;;;;;;28.00;95.30;;;;;;4192559;28;19932;-73
2022/10/22 11:49:22;;;;;;;;;;;28.00;95.30;;;;;;4193983;28;19929;-73
2022/10/22 11:51:38;;;;;;;;;;;28.00;95.20;;;;;;4195157;28;19931;-73
2022/10/22 11:53:44;;;;;;;;;;;28.00;95.30;;;;;;4195604;28;19933;-73
2022/10/22 11:55:50;;;;;;;;;;;28.00;95.40;;;;;;4195263;28;20367;-74
2022/10/22 11:57:57;;;;;;;;;;;28.00;95.50;;;;;;4192989;28;19932;-73
2022/10/22 12:00:36;;;;;;;;;;;28.00;95.50;;;;;;4194432;28;19989;-72
2022/10/22 12:02:42;;;;;;;;;;;28.00;95.60;;;;;;4187449;28;19929;-73
2022/10/22 12:05:15;;;;;;;;;;;28.00;95.70;;;;;;4209764;28;19932;-73
2022/10/22 12:07:58;;;;;;;;;;;28.00;95.80;;;;;;4204526;28;19948;-73
2022/10/22 12:10:12;;;;;;;;;;;27.90;95.90;;;;;;4173956;28;19941;-74
2022/10/22 12:12:28;;;;;;;;;;;28.00;95.90;;;;;;4207472;28;19961;-73
2022/10/22 12:14:58;;;;;;;;;;;27.90;96.00;;;;;;4191767;28;19930;-73
2022/10/22 12:17:11;;;;;;;;;;;27.90;96.00;;;;;;4193233;28;21177;-73
2022/10/22 12:19:20;;;;;;;;;;;27.90;96.20;;;;;;4205700;28;19924;-70
2022/10/22 12:21:31;;;;;;;;;;;27.90;96.20;;;;;;4208273;28;20407;-73
2022/10/22 12:23:36;;;;;;;;;;;27.90;96.30;;;;;;4207989;28;20055;-73
2022/10/22 12:25:47;;;;;;;;;;;27.90;96.40;;;;;;4207911;28;20353;-72
2022/10/22 12:28:09;;;;;;;;;;;27.80;96.50;;;;;;4187898;28;19924;-72
2022/10/22 12:30:18;;;;;;;;;;;27.80;96.50;;;;;;4186338;28;19974;-72
2022/10/22 12:32:34;;;;;;;;;;;27.80;96.50;;;;;;4206724;28;19924;-72
2022/10/22 12:34:51;;;;;;;;;;;27.80;96.50;;;;;;4183699;28;19932;-71
2022/10/22 12:36:59;;;;;;;;;;;27.90;96.50;;;;;;4183378;28;19933;-71
2022/10/22 12:39:19;;;;;;;;;;;27.80;96.50;;;;;;4208967;28;19932;-72
2022/10/22 12:41:32;;;;;;;;;;;27.80;96.60;;;;;;4207699;28;19935;-72
2022/10/22 12:43:39;;;;;;;;;;;27.80;96.60;;;;;;4192888;28;19982;-73
2022/10/22 12:45:44;;;;;;;;;;;27.80;96.60;;;;;;4190660;28;19928;-73
2022/10/22 12:47:58;;;;;;;;;;;27.80;96.70;;;;;;4183855;28;20065;-74
2022/10/22 12:50:14;;;;;;;;;;;27.80;96.60;;;;;;4190762;28;19986;-73
2022/10/22 12:52:24;;;;;;;;;;;27.80;96.50;;;;;;4191130;28;19974;-73
2022/10/22 12:54:32;;;;;;;;;;;27.80;96.50;;;;;;4207108;28;19923;-73
2022/10/22 12:56:39;;;;;;;;;;;27.80;96.40;;;;;;4191649;28;19928;-73
2022/10/22 12:59:05;;;;;;;;;;;27.80;96.30;;;;;;4203649;28;19936;-73
2022/10/22 13:01:24;;;;;;;;;;;27.80;96.30;;;;;;4198722;28;20338;-72
2022/10/22 13:03:49;;;;;;;;;;;27.80;96.20;;;;;;4191816;28;19972;-71